createdAt,value
2018-11-14T00:00:27.803Z,102031.14
2018-11-14T00:01:29.607Z,102032.82
2018-11-14T00:02:31.849Z,102042.67
2018-11-14T00:03:33.623Z,102032.44
2018-11-14T00:04:35.385Z,102036.53
2018-11-14T00:05:37.239Z,102040.61
2018-11-14T00:06:39.048Z,102041.20
2018-11-14T00:07:41.696Z,102046.97
2018-11-14T00:08:43.481Z,102039.52
2018-11-14T00:09:45.654Z,102038.97
2018-11-14T00:10:47.387Z,102038.04
2018-11-14T00:11:49.412Z,102047.72
2018-11-14T00:12:51.671Z,102042.67
2018-11-14T00:13:53.420Z,102049.95
2018-11-14T00:14:55.186Z,102052.94
2018-11-14T00:15:56.959Z,102050.87
2018-11-14T00:16:58.835Z,102060.01
2018-11-14T00:18:00.758Z,102060.94
2018-11-14T00:19:02.515Z,102058.70
2018-11-14T00:20:04.284Z,102061.69
2018-11-14T00:21:06.231Z,102054.23
2018-11-14T00:22:08.011Z,102062.99
2018-11-14T00:23:09.775Z,102063.16
2018-11-14T00:24:12.487Z,102060.01
2018-11-14T00:25:14.280Z,102067.28
2018-11-14T00:26:16.044Z,102066.16
2018-11-14T00:27:17.843Z,102070.44
2018-11-14T00:28:19.750Z,102072.30
2018-11-14T00:29:22.487Z,102067.45
2018-11-14T00:30:25.440Z,102077.14
2018-11-14T00:31:27.215Z,102068.38
2018-11-14T00:32:29.021Z,102068.77
2018-11-14T00:33:31.016Z,102070.41
2018-11-14T00:34:32.928Z,102067.63
2018-11-14T00:35:34.748Z,102076.21
2018-11-14T00:36:36.483Z,102076.59
2018-11-14T00:37:38.729Z,102079.75
2018-11-14T00:38:40.840Z,102074.36
2018-11-14T00:39:42.611Z,102077.72
2018-11-14T00:40:44.375Z,102082.36
2018-11-14T00:41:46.149Z,102081.39
2018-11-14T00:42:48.493Z,102081.60
2018-11-14T00:43:50.271Z,102078.82
2018-11-14T00:44:52.035Z,102086.27
2018-11-14T00:45:53.799Z,102083.48
2018-11-14T00:46:55.633Z,102086.48
2018-11-14T00:47:57.404Z,102089.09
2018-11-14T00:48:59.188Z,102086.48
2018-11-14T00:50:00.959Z,102087.41
2018-11-14T00:51:02.728Z,102087.95
2018-11-14T00:52:04.496Z,102093.38
2018-11-14T00:53:06.318Z,102093.92
2018-11-14T00:54:08.095Z,102090.39
2018-11-14T00:55:11.165Z,102090.39
2018-11-14T00:56:12.942Z,102095.02
2018-11-14T00:57:14.720Z,102090.94
2018-11-14T00:58:16.512Z,102095.61
2018-11-14T00:59:18.285Z,102096.36
2018-11-14T01:00:22.263Z,102101.37
2018-11-14T01:01:24.333Z,102111.41
2018-11-14T01:02:26.096Z,102103.23
2018-11-14T01:03:27.940Z,102101.37
2018-11-14T01:04:29.712Z,102100.45
2018-11-14T01:05:31.485Z,102104.36
2018-11-14T01:06:33.253Z,102101.00
2018-11-14T01:07:35.015Z,102101.75
2018-11-14T01:08:37.146Z,102103.44
2018-11-14T01:09:38.931Z,102102.33
2018-11-14T01:10:41.480Z,102099.34
2018-11-14T01:11:43.321Z,102106.62
2018-11-14T01:12:45.723Z,102102.70
2018-11-14T01:13:47.520Z,102098.42
2018-11-14T01:14:49.446Z,102092.66
2018-11-14T01:15:51.216Z,102102.33
2018-11-14T01:16:52.988Z,102106.25
2018-11-14T01:17:54.770Z,102109.61
2018-11-14T01:18:56.546Z,102109.23
2018-11-14T01:19:58.349Z,102115.55
2018-11-14T01:21:00.120Z,102119.84
2018-11-14T01:22:01.895Z,102117.61
2018-11-14T01:23:03.712Z,102118.53
2018-11-14T01:24:05.490Z,102116.68
2018-11-14T01:25:07.779Z,102116.68
2018-11-14T01:26:09.790Z,102121.90
2018-11-14T01:27:11.890Z,102123.03
2018-11-14T01:28:13.529Z,102123.58
2018-11-14T01:29:15.323Z,102121.90
2018-11-14T01:30:19.397Z,102120.97
2018-11-14T01:31:21.168Z,102121.70
2018-11-14T01:32:22.920Z,102114.07
2018-11-14T01:33:25.038Z,102114.07
2018-11-14T01:34:26.843Z,102106.62
2018-11-14T01:35:28.605Z,102114.45
2018-11-14T01:36:30.379Z,102115.75
2018-11-14T01:37:32.146Z,102114.27
2018-11-14T01:38:34.782Z,102123.03
2018-11-14T01:39:36.594Z,102119.11
2018-11-14T01:40:38.424Z,102123.95
2018-11-14T01:41:41.183Z,102118.73
2018-11-14T01:42:43.426Z,102117.64
2018-11-14T01:43:45.183Z,102120.05
2018-11-14T01:44:47.144Z,102120.42
2018-11-14T01:45:48.908Z,102127.32
2018-11-14T01:46:50.673Z,102126.94
2018-11-14T01:47:52.464Z,102119.31
2018-11-14T01:48:54.445Z,102123.03
2018-11-14T01:49:56.250Z,102119.87
2018-11-14T01:50:58.036Z,102123.03
2018-11-14T01:51:59.993Z,102122.66
2018-11-14T01:53:01.756Z,102132.53
2018-11-14T01:54:03.530Z,102131.98
2018-11-14T01:55:05.331Z,102134.05
2018-11-14T01:56:07.307Z,102135.34
2018-11-14T01:57:09.068Z,102137.58
2018-11-14T01:58:11.328Z,102135.34
2018-11-14T01:59:13.110Z,102139.06
2018-11-14T02:00:16.041Z,102138.88
2018-11-14T02:01:18.333Z,102132.73
2018-11-14T02:02:20.122Z,102139.60
2018-11-14T02:03:21.927Z,102140.56
2018-11-14T02:04:23.692Z,102143.72
2018-11-14T02:05:25.446Z,102139.06
2018-11-14T02:06:27.758Z,102149.12
2018-11-14T02:07:29.528Z,102140.73
2018-11-14T02:08:31.333Z,102143.34
2018-11-14T02:09:33.104Z,102145.03
2018-11-14T02:10:34.956Z,102142.05
2018-11-14T02:11:36.850Z,102145.03
2018-11-14T02:12:39.338Z,102144.10
2018-11-14T02:13:41.086Z,102146.51
2018-11-14T02:14:44.232Z,102141.49
2018-11-14T02:15:46.018Z,102144.48
2018-11-14T02:16:47.794Z,102148.39
2018-11-14T02:17:49.588Z,102144.48
2018-11-14T02:18:51.724Z,102144.27
2018-11-14T02:19:53.497Z,102145.20
2018-11-14T02:20:55.295Z,102143.89
2018-11-14T02:21:57.199Z,102142.03
2018-11-14T02:22:58.960Z,102141.48
2018-11-14T02:24:00.742Z,102143.72
2018-11-14T02:25:02.522Z,102135.34
2018-11-14T02:26:04.648Z,102134.03
2018-11-14T02:27:06.497Z,102136.81
2018-11-14T02:28:08.280Z,102144.64
2018-11-14T02:29:10.236Z,102141.11
2018-11-14T02:30:12.288Z,102144.09
2018-11-14T02:31:14.040Z,102140.73
2018-11-14T02:32:15.820Z,102141.48
2018-11-14T02:33:17.788Z,102147.09
2018-11-14T02:34:19.560Z,102141.66
2018-11-14T02:35:21.326Z,102143.34
2018-11-14T02:36:23.122Z,102143.34
2018-11-14T02:37:24.994Z,102139.25
2018-11-14T02:38:27.773Z,102144.09
2018-11-14T02:39:29.525Z,102146.70
2018-11-14T02:40:31.296Z,102150.03
2018-11-14T02:41:35.136Z,102143.72
2018-11-14T02:42:36.909Z,102146.88
2018-11-14T02:43:38.674Z,102146.33
2018-11-14T02:44:41.315Z,102140.00
2018-11-14T02:45:43.106Z,102139.08
2018-11-14T02:46:45.471Z,102140.00
2018-11-14T02:47:47.244Z,102141.31
2018-11-14T02:48:49.210Z,102142.98
2018-11-14T02:49:50.987Z,102135.16
2018-11-14T02:50:52.748Z,102137.39
2018-11-14T02:51:55.556Z,102145.77
2018-11-14T02:52:57.327Z,102139.25
2018-11-14T02:53:59.094Z,102137.95
2018-11-14T02:55:00.848Z,102130.33
2018-11-14T02:56:02.619Z,102133.11
2018-11-14T02:57:04.427Z,102130.33
2018-11-14T02:58:06.196Z,102137.39
2018-11-14T02:59:07.968Z,102133.86
2018-11-14T03:00:09.731Z,102127.72
2018-11-14T03:01:11.513Z,102133.48
2018-11-14T03:02:13.563Z,102134.96
2018-11-14T03:03:15.518Z,102126.96
2018-11-14T03:04:17.288Z,102128.27
2018-11-14T03:05:19.044Z,102129.02
2018-11-14T03:06:20.812Z,102131.05
2018-11-14T03:07:23.781Z,102126.96
2018-11-14T03:08:25.551Z,102129.02
2018-11-14T03:09:27.930Z,102124.73
2018-11-14T03:10:29.796Z,102123.42
2018-11-14T03:11:31.593Z,102133.66
2018-11-14T03:12:33.461Z,102132.17
2018-11-14T03:13:35.177Z,102134.78
2018-11-14T03:14:36.939Z,102132.73
2018-11-14T03:15:39.149Z,102139.25
2018-11-14T03:16:40.915Z,102135.72
2018-11-14T03:17:42.701Z,102138.70
2018-11-14T03:18:44.476Z,102134.41
2018-11-14T03:19:46.242Z,102142.06
2018-11-14T03:20:48.011Z,102137.39
2018-11-14T03:21:49.785Z,102135.72
2018-11-14T03:22:52.728Z,102129.57
2018-11-14T03:23:54.505Z,102140.00
2018-11-14T03:24:56.283Z,102139.25
2018-11-14T03:25:58.160Z,102134.23
2018-11-14T03:26:59.944Z,102138.70
2018-11-14T03:28:01.725Z,102143.92
2018-11-14T03:29:03.489Z,102141.31
2018-11-14T03:30:05.701Z,102147.28
2018-11-14T03:31:07.479Z,102150.81
2018-11-14T03:32:09.247Z,102146.91
2018-11-14T03:33:11.033Z,102151.37
2018-11-14T03:34:12.801Z,102149.52
2018-11-14T03:35:15.043Z,102151.56
2018-11-14T03:36:23.653Z,102151.56
2018-11-14T03:37:25.402Z,102149.89
2018-11-14T03:38:27.195Z,102153.98
2018-11-14T03:39:28.977Z,102152.13
2018-11-14T03:40:30.752Z,102152.13
2018-11-14T03:41:32.524Z,102152.13
2018-11-14T03:42:35.339Z,102151.56
2018-11-14T03:43:37.122Z,102159.39
2018-11-14T03:44:38.912Z,102152.50
2018-11-14T03:45:40.683Z,102151.94
2018-11-14T03:46:42.468Z,102154.55
2018-11-14T03:47:44.233Z,102152.88
2018-11-14T03:48:46.567Z,102156.78
2018-11-14T03:49:48.350Z,102154.17
2018-11-14T03:50:50.124Z,102160.14
2018-11-14T03:51:52.031Z,102163.30
2018-11-14T03:52:53.793Z,102172.06
2018-11-14T03:53:55.574Z,102164.06
2018-11-14T03:54:58.254Z,102176.34
2018-11-14T03:56:00.021Z,102172.81
2018-11-14T03:57:01.813Z,102171.12
2018-11-14T03:58:03.754Z,102176.34
2018-11-14T03:59:05.486Z,102173.19
2018-11-14T04:00:07.457Z,102176.73
2018-11-14T04:01:09.501Z,102178.95
2018-11-14T04:02:11.264Z,102172.44
2018-11-14T04:03:13.521Z,102172.44
2018-11-14T04:04:15.317Z,102166.67
2018-11-14T04:05:17.130Z,102171.51
2018-11-14T04:06:18.879Z,102167.59
2018-11-14T04:07:21.006Z,102171.12
2018-11-14T04:08:22.781Z,102168.14
2018-11-14T04:09:24.648Z,102167.22
2018-11-14T04:10:26.343Z,102171.51
2018-11-14T04:11:28.104Z,102166.67
2018-11-14T04:12:29.991Z,102165.91
2018-11-14T04:13:31.751Z,102169.25
2018-11-14T04:14:33.519Z,102169.45
2018-11-14T04:15:35.315Z,102172.81
2018-11-14T04:16:37.490Z,102172.06
2018-11-14T04:17:39.568Z,102173.73
2018-11-14T04:18:42.416Z,102170.38
2018-11-14T04:19:44.225Z,102166.84
2018-11-14T04:20:46.011Z,102167.59
2018-11-14T04:21:47.796Z,102172.44
2018-11-14T04:22:49.571Z,102168.34
2018-11-14T04:23:51.605Z,102171.30
2018-11-14T04:24:54.058Z,102169.83
2018-11-14T04:25:55.827Z,102172.81
2018-11-14T04:26:58.063Z,102181.94
2018-11-14T04:27:59.839Z,102175.42
2018-11-14T04:29:01.736Z,102175.42
2018-11-14T04:30:03.531Z,102178.03
2018-11-14T04:31:05.497Z,102171.88
2018-11-14T04:32:07.267Z,102181.56
2018-11-14T04:33:09.037Z,102182.87
2018-11-14T04:34:10.819Z,102181.94
2018-11-14T04:35:13.619Z,102191.45
2018-11-14T04:36:15.495Z,102182.31
2018-11-14T04:37:17.383Z,102184.17
2018-11-14T04:38:19.166Z,102193.11
2018-11-14T04:39:20.952Z,102183.24
2018-11-14T04:40:23.879Z,102183.80
2018-11-14T04:41:26.201Z,102178.78
2018-11-14T04:42:28.070Z,102183.63
2018-11-14T04:43:29.839Z,102188.28
2018-11-14T04:44:31.592Z,102180.08
2018-11-14T04:45:33.395Z,102186.61
2018-11-14T04:46:35.171Z,102185.68
2018-11-14T04:47:37.581Z,102191.83
2018-11-14T04:48:39.378Z,102193.50
2018-11-14T04:49:41.402Z,102191.83
2018-11-14T04:50:43.281Z,102196.86
2018-11-14T04:51:45.219Z,102198.34
2018-11-14T04:52:47.882Z,102199.09
2018-11-14T04:53:49.816Z,102207.09
2018-11-14T04:54:51.640Z,102207.84
2018-11-14T04:55:53.456Z,102209.53
2018-11-14T04:56:55.240Z,102217.91
2018-11-14T04:57:57.487Z,102213.44
2018-11-14T04:58:59.263Z,102210.08
2018-11-14T05:00:01.099Z,102207.67
2018-11-14T05:01:05.253Z,102218.66
2018-11-14T05:02:07.502Z,102219.77
2018-11-14T05:03:09.261Z,102217.91
2018-11-14T05:04:12.909Z,102214.38
2018-11-14T05:05:15.837Z,102211.96
2018-11-14T05:06:17.639Z,102210.28
2018-11-14T05:07:19.401Z,102217.73
2018-11-14T05:08:21.171Z,102215.50
2018-11-14T05:09:22.952Z,102214.19
2018-11-14T05:10:26.099Z,102210.66
2018-11-14T05:11:28.267Z,102206.37
2018-11-14T05:12:30.035Z,102209.35
2018-11-14T05:13:32.368Z,102206.37
2018-11-14T05:14:34.146Z,102211.03
2018-11-14T05:15:36.412Z,102207.67
2018-11-14T05:16:38.360Z,102209.53
2018-11-14T05:17:40.118Z,102208.60
2018-11-14T05:18:41.900Z,102207.30
2018-11-14T05:19:43.659Z,102209.53
2018-11-14T05:20:45.936Z,102214.19
2018-11-14T05:21:47.734Z,102215.30
2018-11-14T05:22:49.825Z,102215.50
2018-11-14T05:23:51.954Z,102217.17
2018-11-14T05:24:53.737Z,102216.42
2018-11-14T05:25:55.517Z,102224.62
2018-11-14T05:26:57.333Z,102222.02
2018-11-14T05:28:00.354Z,102225.38
2018-11-14T05:29:02.127Z,102229.84
2018-11-14T05:30:03.946Z,102232.45
2018-11-14T05:31:05.712Z,102230.77
2018-11-14T05:32:07.510Z,102230.95
2018-11-14T05:33:09.305Z,102234.66
2018-11-14T05:34:11.062Z,102235.77
2018-11-14T05:35:13.616Z,102235.97
2018-11-14T05:36:15.404Z,102233.16
2018-11-14T05:37:17.255Z,102238.20
2018-11-14T05:38:20.491Z,102244.15
2018-11-14T05:39:22.441Z,102240.61
2018-11-14T05:40:24.227Z,102242.09
2018-11-14T05:41:26.149Z,102241.73
2018-11-14T05:42:27.934Z,102238.38
2018-11-14T05:43:29.720Z,102243.77
2018-11-14T05:44:31.600Z,102244.31
2018-11-14T05:45:34.313Z,102245.80
2018-11-14T05:46:36.044Z,102249.53
2018-11-14T05:47:38.046Z,102248.59
2018-11-14T05:48:39.835Z,102249.31
2018-11-14T05:49:41.656Z,102245.98
2018-11-14T05:50:43.783Z,102247.66
2018-11-14T05:51:45.562Z,102251.02
2018-11-14T05:52:47.363Z,102251.77
2018-11-14T05:53:50.246Z,102248.03
2018-11-14T05:54:52.061Z,102248.43
2018-11-14T05:55:53.850Z,102251.22
2018-11-14T05:56:55.636Z,102247.68
2018-11-14T05:57:57.480Z,102255.86
2018-11-14T05:58:59.256Z,102253.23
2018-11-14T06:00:01.228Z,102258.82
2018-11-14T06:01:03.086Z,102251.00
2018-11-14T06:02:04.842Z,102250.09
2018-11-14T06:03:06.658Z,102254.91
2018-11-14T06:04:09.497Z,102255.12
2018-11-14T06:05:11.263Z,102251.20
2018-11-14T06:06:13.014Z,102251.75
2018-11-14T06:07:15.060Z,102253.42
2018-11-14T06:08:17.427Z,102258.07
2018-11-14T06:09:19.198Z,102254.53
2018-11-14T06:10:21.582Z,102255.84
2018-11-14T06:11:23.798Z,102256.42
2018-11-14T06:12:26.640Z,102254.93
2018-11-14T06:13:28.426Z,102253.61
2018-11-14T06:14:30.220Z,102244.88
2018-11-14T06:15:31.996Z,102259.77
2018-11-14T06:16:33.776Z,102258.84
2018-11-14T06:17:35.565Z,102265.55
2018-11-14T06:18:37.351Z,102267.78
2018-11-14T06:19:39.124Z,102266.48
2018-11-14T06:20:40.920Z,102274.69
2018-11-14T06:21:42.775Z,102268.34
2018-11-14T06:22:45.774Z,102270.02
2018-11-14T06:23:47.709Z,102272.81
2018-11-14T06:24:49.377Z,102269.64
2018-11-14T06:25:52.992Z,102267.41
2018-11-14T06:26:54.915Z,102272.27
2018-11-14T06:27:57.544Z,102272.82
2018-11-14T06:28:59.346Z,102277.47
2018-11-14T06:30:01.120Z,102280.63
2018-11-14T06:31:02.899Z,102282.30
2018-11-14T06:32:04.691Z,102280.25
2018-11-14T06:33:07.617Z,102286.59
2018-11-14T06:34:09.406Z,102288.28
2018-11-14T06:35:11.188Z,102288.28
2018-11-14T06:36:12.959Z,102288.30
2018-11-14T06:37:14.740Z,102290.88
2018-11-14T06:38:17.072Z,102295.75
2018-11-14T06:39:19.435Z,102292.21
2018-11-14T06:40:21.270Z,102289.60
2018-11-14T06:41:23.066Z,102294.27
2018-11-14T06:42:24.914Z,102292.41
2018-11-14T06:43:27.294Z,102286.61
2018-11-14T06:44:29.072Z,102287.74
2018-11-14T06:45:32.225Z,102288.67
2018-11-14T06:46:34.090Z,102291.28
2018-11-14T06:47:35.856Z,102294.63
2018-11-14T06:48:37.745Z,102294.27
2018-11-14T06:49:39.527Z,102296.12
2018-11-14T06:50:41.303Z,102297.42
2018-11-14T06:51:43.242Z,102298.73
2018-11-14T06:52:45.937Z,102301.72
2018-11-14T06:53:47.746Z,102303.02
2018-11-14T06:54:49.569Z,102306.38
2018-11-14T06:55:51.827Z,102306.01
2018-11-14T06:56:53.623Z,102310.30
2018-11-14T06:57:57.196Z,102307.51
2018-11-14T06:58:59.215Z,102314.03
2018-11-14T07:00:00.940Z,102321.86
2018-11-14T07:01:02.727Z,102319.62
2018-11-14T07:02:04.477Z,102320.00
2018-11-14T07:03:07.233Z,102319.62
2018-11-14T07:04:08.999Z,102318.13
2018-11-14T07:05:12.611Z,102325.22
2018-11-14T07:06:15.023Z,102327.25
2018-11-14T07:07:16.738Z,102337.33
2018-11-14T07:08:20.929Z,102329.88
2018-11-14T07:09:22.741Z,102332.48
2018-11-14T07:10:25.787Z,102336.78
2018-11-14T07:11:27.576Z,102331.00
2018-11-14T07:12:30.652Z,102334.72
2018-11-14T07:13:32.477Z,102331.92
2018-11-14T07:14:34.241Z,102333.97
2018-11-14T07:15:36.672Z,102325.97
2018-11-14T07:16:38.455Z,102325.79
2018-11-14T07:17:40.516Z,102328.75
2018-11-14T07:18:42.273Z,102328.95
2018-11-14T07:19:44.045Z,102331.56
2018-11-14T07:20:46.017Z,102333.61
2018-11-14T07:21:48.049Z,102339.56
2018-11-14T07:22:49.981Z,102334.70
2018-11-14T07:23:51.796Z,102333.02
2018-11-14T07:24:53.587Z,102334.55
2018-11-14T07:25:55.969Z,102325.20
2018-11-14T07:26:57.745Z,102329.48
2018-11-14T07:27:59.518Z,102326.13
2018-11-14T07:29:01.299Z,102327.80
2018-11-14T07:30:03.074Z,102325.02
2018-11-14T07:31:04.868Z,102324.09
2018-11-14T07:32:06.666Z,102323.16
2018-11-14T07:33:09.748Z,102324.46
2018-11-14T07:34:12.255Z,102322.78
2018-11-14T07:35:15.004Z,102319.44
2018-11-14T07:36:16.786Z,102323.16
2018-11-14T07:37:19.348Z,102320.00
2018-11-14T07:38:21.131Z,102322.61
2018-11-14T07:39:22.932Z,102324.46
2018-11-14T07:40:25.184Z,102324.84
2018-11-14T07:41:28.454Z,102323.73
2018-11-14T07:42:30.303Z,102321.13
2018-11-14T07:43:32.909Z,102324.11
2018-11-14T07:44:34.669Z,102325.21
2018-11-14T07:45:36.443Z,102321.30
2018-11-14T07:46:38.315Z,102320.00
2018-11-14T07:47:40.131Z,102321.30
2018-11-14T07:48:42.328Z,102330.80
2018-11-14T07:49:44.404Z,102332.11
2018-11-14T07:50:46.182Z,102343.85
2018-11-14T07:51:48.151Z,102346.08
2018-11-14T07:52:50.005Z,102350.00
2018-11-14T07:53:52.049Z,102349.61
2018-11-14T07:54:54.166Z,102347.77
2018-11-14T07:55:56.404Z,102347.77
2018-11-14T07:56:58.401Z,102346.28
2018-11-14T07:58:00.181Z,102348.14
2018-11-14T07:59:02.639Z,102346.44
2018-11-14T08:00:04.414Z,102354.11
2018-11-14T08:01:07.308Z,102355.22
2018-11-14T08:02:09.491Z,102358.01
2018-11-14T08:03:11.639Z,102360.99
2018-11-14T08:04:13.418Z,102354.26
2018-11-14T08:05:16.009Z,102356.33
2018-11-14T08:06:17.796Z,102362.85
2018-11-14T08:07:19.575Z,102361.17
2018-11-14T08:08:21.455Z,102364.35
2018-11-14T08:09:23.211Z,102362.67
2018-11-14T08:10:24.971Z,102364.17
2018-11-14T08:11:27.918Z,102363.62
2018-11-14T08:12:29.691Z,102367.88
2018-11-14T08:13:32.566Z,102368.25
2018-11-14T08:14:34.343Z,102369.92
2018-11-14T08:15:36.115Z,102367.88
2018-11-14T08:16:37.908Z,102372.16
2018-11-14T08:17:39.692Z,102377.00
2018-11-14T08:18:41.496Z,102375.70
2018-11-14T08:19:44.929Z,102379.61
2018-11-14T08:20:46.840Z,102375.36
2018-11-14T08:21:48.618Z,102376.66
2018-11-14T08:22:50.379Z,102385.05
2018-11-14T08:23:52.329Z,102376.66
2018-11-14T08:24:54.187Z,102383.18
2018-11-14T08:25:56.770Z,102377.22
2018-11-14T08:26:58.671Z,102381.12
2018-11-14T08:28:00.447Z,102381.50
2018-11-14T08:29:02.220Z,102378.89
2018-11-14T08:30:04.053Z,102379.83
2018-11-14T08:31:05.821Z,102383.36
2018-11-14T08:32:07.589Z,102377.59
2018-11-14T08:33:09.359Z,102375.91
2018-11-14T08:34:11.361Z,102377.39
2018-11-14T08:35:13.134Z,102371.78
2018-11-14T08:36:14.922Z,102370.14
2018-11-14T08:37:16.688Z,102365.27
2018-11-14T08:38:19.686Z,102364.55
2018-11-14T08:39:21.476Z,102369.95
2018-11-14T08:40:23.294Z,102365.10
2018-11-14T08:41:25.079Z,102365.47
2018-11-14T08:42:27.075Z,102366.78
2018-11-14T08:43:28.837Z,102373.86
2018-11-14T08:44:30.730Z,102371.43
2018-11-14T08:45:32.646Z,102371.80
2018-11-14T08:46:34.419Z,102372.18
2018-11-14T08:47:36.973Z,102372.73
2018-11-14T08:48:38.779Z,102377.58
2018-11-14T08:49:41.363Z,102377.58
2018-11-14T08:50:43.152Z,102381.67
2018-11-14T08:51:44.925Z,102373.66
2018-11-14T08:52:47.530Z,102370.11
2018-11-14T08:53:49.426Z,102381.10
2018-11-14T08:54:51.275Z,102384.28
2018-11-14T08:55:53.049Z,102384.45
2018-11-14T08:56:54.827Z,102378.12
2018-11-14T08:57:56.738Z,102383.14
2018-11-14T08:58:58.501Z,102387.23
2018-11-14T09:00:00.328Z,102392.11
2018-11-14T09:01:02.103Z,102389.66
2018-11-14T09:02:03.885Z,102388.36
2018-11-14T09:03:06.381Z,102385.94
2018-11-14T09:04:08.223Z,102388.36
2018-11-14T09:05:10.413Z,102390.97
2018-11-14T09:06:12.224Z,102390.97
2018-11-14T09:07:14.165Z,102385.56
2018-11-14T09:08:16.475Z,102384.45
2018-11-14T09:09:18.245Z,102382.60
2018-11-14T09:10:22.472Z,102382.05
2018-11-14T09:11:24.310Z,102381.48
2018-11-14T09:12:26.118Z,102381.85
2018-11-14T09:13:27.843Z,102388.18
2018-11-14T09:14:29.744Z,102393.40
2018-11-14T09:15:31.509Z,102393.77
2018-11-14T09:16:33.421Z,102404.03
2018-11-14T09:17:35.343Z,102406.27
2018-11-14T09:18:37.160Z,102407.19
2018-11-14T09:19:38.991Z,102402.91
2018-11-14T09:20:40.776Z,102410.38
2018-11-14T09:21:44.475Z,102414.28
2018-11-14T09:22:46.709Z,102415.77
2018-11-14T09:23:48.513Z,102424.16
2018-11-14T09:24:50.555Z,102421.00
2018-11-14T09:25:52.415Z,102425.29
2018-11-14T09:26:54.251Z,102424.91
2018-11-14T09:27:56.041Z,102432.36
2018-11-14T09:28:58.716Z,102430.69
2018-11-14T09:30:00.595Z,102431.81
2018-11-14T09:31:02.544Z,102431.62
2018-11-14T09:32:04.336Z,102435.72
2018-11-14T09:33:06.199Z,102435.72
2018-11-14T09:34:07.940Z,102440.20
2018-11-14T09:35:11.321Z,102441.50
2018-11-14T09:36:13.094Z,102444.66
2018-11-14T09:37:15.887Z,102444.84
2018-11-14T09:38:17.674Z,102442.05
2018-11-14T09:39:19.450Z,102438.52
2018-11-14T09:40:22.640Z,102429.58
2018-11-14T09:41:24.484Z,102432.00
2018-11-14T09:42:26.226Z,102427.53
2018-11-14T09:43:28.005Z,102429.02
2018-11-14T09:44:29.913Z,102426.03
2018-11-14T09:45:31.846Z,102435.34
2018-11-14T09:46:34.199Z,102433.67
2018-11-14T09:47:36.166Z,102439.45
2018-11-14T09:48:39.062Z,102427.89
2018-11-14T09:49:41.094Z,102425.29
2018-11-14T09:50:43.209Z,102425.09
2018-11-14T09:51:45.236Z,102422.48
2018-11-14T09:52:48.484Z,102419.70
2018-11-14T09:53:50.261Z,102419.70
2018-11-14T09:54:52.242Z,102418.02
2018-11-14T09:55:54.069Z,102416.71
2018-11-14T09:56:55.878Z,102418.39
2018-11-14T09:57:57.639Z,102416.16
2018-11-14T09:58:59.463Z,102424.16
2018-11-14T10:00:01.230Z,102420.98
2018-11-14T10:01:03.050Z,102417.64
2018-11-14T10:02:04.829Z,102420.63
2018-11-14T10:03:06.708Z,102417.09
2018-11-14T10:04:08.816Z,102421.75
2018-11-14T10:05:11.253Z,102417.28
2018-11-14T10:06:13.171Z,102418.39
2018-11-14T10:07:14.933Z,102422.86
2018-11-14T10:08:16.773Z,102421.18
2018-11-14T10:09:18.541Z,102425.83
2018-11-14T10:10:21.383Z,102425.09
2018-11-14T10:11:23.194Z,102435.16
2018-11-14T10:12:24.999Z,102431.24
2018-11-14T10:13:26.738Z,102423.79
2018-11-14T10:14:28.532Z,102431.98
2018-11-14T10:15:30.344Z,102432.73
2018-11-14T10:16:32.119Z,102433.28
2018-11-14T10:17:33.874Z,102435.15
2018-11-14T10:18:35.660Z,102434.03
2018-11-14T10:19:37.570Z,102428.27
2018-11-14T10:20:39.496Z,102426.20
2018-11-14T10:21:41.545Z,102423.04
2018-11-14T10:22:43.785Z,102425.45
2018-11-14T10:23:45.561Z,102427.52
2018-11-14T10:24:47.389Z,102427.70
2018-11-14T10:25:49.284Z,102423.21
2018-11-14T10:26:51.076Z,102421.00
2018-11-14T10:27:52.890Z,102424.14
2018-11-14T10:28:54.756Z,102422.30
2018-11-14T10:29:56.534Z,102427.34
2018-11-14T10:30:58.379Z,102427.88
2018-11-14T10:32:00.304Z,102424.53
2018-11-14T10:33:02.252Z,102429.00
2018-11-14T10:34:04.124Z,102425.83
2018-11-14T10:35:05.987Z,102424.91
2018-11-14T10:36:07.753Z,102429.56
2018-11-14T10:37:09.657Z,102426.20
2018-11-14T10:38:11.499Z,102425.27
2018-11-14T10:39:13.295Z,102426.02
2018-11-14T10:40:16.379Z,102430.66
2018-11-14T10:41:18.302Z,102425.27
2018-11-14T10:42:20.100Z,102425.27
2018-11-14T10:43:21.874Z,102431.04
2018-11-14T10:44:23.851Z,102427.31
2018-11-14T10:45:26.429Z,102429.20
2018-11-14T10:46:28.369Z,102422.67
2018-11-14T10:47:30.176Z,102423.21
2018-11-14T10:48:32.603Z,102415.95
2018-11-14T10:49:34.376Z,102423.22
2018-11-14T10:50:36.164Z,102420.60
2018-11-14T10:51:38.688Z,102412.98
2018-11-14T10:52:40.458Z,102415.75
2018-11-14T10:53:42.227Z,102415.95
2018-11-14T10:54:45.192Z,102409.42
2018-11-14T10:55:47.076Z,102412.97
2018-11-14T10:56:48.860Z,102413.34
2018-11-14T10:57:50.646Z,102412.97
2018-11-14T10:58:52.434Z,102413.34
2018-11-14T10:59:54.211Z,102415.39
2018-11-14T11:01:01.601Z,102414.09
2018-11-14T11:02:09.910Z,102417.99
2018-11-14T11:03:16.850Z,102415.95
2018-11-14T11:04:24.137Z,102418.37
2018-11-14T11:05:31.426Z,102410.73
2018-11-14T11:06:40.469Z,102418.38
2018-11-14T11:07:47.718Z,102410.74
2018-11-14T11:08:54.844Z,102415.03
2018-11-14T11:10:02.729Z,102410.74
2018-11-14T11:11:09.904Z,102415.03
2018-11-14T11:12:17.263Z,102415.03
2018-11-14T11:13:24.476Z,102414.85
2018-11-14T11:14:36.152Z,102404.79
2018-11-14T11:15:43.350Z,102408.33
2018-11-14T11:16:50.471Z,102413.17
2018-11-14T11:17:57.716Z,102418.58
2018-11-14T11:18:59.472Z,102410.74
2018-11-14T11:20:01.244Z,102407.94
2018-11-14T11:21:03.219Z,102397.70
2018-11-14T11:22:05.018Z,102407.20
2018-11-14T11:23:07.200Z,102409.27
2018-11-14T11:24:08.972Z,102401.98
2018-11-14T11:25:10.758Z,102407.95
2018-11-14T11:26:12.544Z,102409.63
2018-11-14T11:27:14.310Z,102407.02
2018-11-14T11:28:16.334Z,102407.22
2018-11-14T11:29:18.213Z,102410.38
2018-11-14T11:30:20.071Z,102414.85
2018-11-14T11:31:21.896Z,102411.87
2018-11-14T11:32:23.688Z,102407.20
2018-11-14T11:33:25.467Z,102407.20
2018-11-14T11:34:27.244Z,102401.98
2018-11-14T11:35:29.069Z,102403.66
2018-11-14T11:36:30.872Z,102401.23
2018-11-14T11:37:32.642Z,102408.50
2018-11-14T11:38:34.427Z,102408.12
2018-11-14T11:39:36.212Z,102405.33
2018-11-14T11:40:38.003Z,102406.28
2018-11-14T11:41:40.485Z,102402.92
2018-11-14T11:42:42.271Z,102409.44
2018-11-14T11:43:44.051Z,102407.95
2018-11-14T11:44:45.841Z,102413.17
2018-11-14T11:45:47.724Z,102412.99
2018-11-14T11:46:49.522Z,102419.14
2018-11-14T11:47:51.297Z,102417.84
2018-11-14T11:48:53.369Z,102413.92